createdAt,value
2023-03-05T00:01:29.395Z,338.47
2023-03-05T00:03:57.722Z,357.17
2023-03-05T00:06:28.236Z,344.00
2023-03-05T00:08:58.380Z,339.27
2023-03-05T00:11:30.236Z,354.50
2023-03-05T00:13:58.497Z,343.20
2023-03-05T00:16:28.504Z,332.43
2023-03-05T00:18:57.504Z,335.70
2023-03-05T00:21:53.752Z,342.43
2023-03-05T00:24:20.838Z,335.80
2023-03-05T00:26:48.182Z,346.00
2023-03-05T00:29:30.800Z,354.77
2023-03-05T00:31:58.770Z,338.27
2023-03-05T00:34:28.076Z,347.13
2023-03-05T00:36:55.174Z,353.40
2023-03-05T00:39:22.722Z,342.93
2023-03-05T00:41:50.753Z,346.57
2023-03-05T00:44:17.905Z,359.53
2023-03-05T00:46:45.016Z,350.03
2023-03-05T00:49:12.065Z,353.17
2023-03-05T00:51:39.321Z,350.10
2023-03-05T00:54:06.638Z,354.30
2023-03-05T00:56:34.179Z,353.30
2023-03-05T00:59:01.240Z,347.03
2023-03-05T01:01:29.282Z,348.23
2023-03-05T01:03:57.574Z,343.27
2023-03-05T01:06:24.612Z,341.77
2023-03-05T01:08:51.641Z,341.77
2023-03-05T01:11:18.938Z,351.43
2023-03-05T01:13:46.003Z,348.23
2023-03-05T01:16:13.111Z,359.77
2023-03-05T01:18:41.042Z,341.37
2023-03-05T01:21:08.546Z,356.07
2023-03-05T01:23:37.552Z,344.97
2023-03-05T01:26:05.744Z,349.77
2023-03-05T01:28:33.253Z,344.60
2023-03-05T01:31:00.283Z,337.60
2023-03-05T01:33:27.337Z,344.57
2023-03-05T01:35:54.429Z,341.30
2023-03-05T01:38:21.542Z,345.87
2023-03-05T01:40:48.575Z,339.80
2023-03-05T01:43:28.385Z,350.87
2023-03-05T01:46:13.494Z,339.30
2023-03-05T01:48:44.934Z,336.17
2023-03-05T01:51:12.284Z,337.70
2023-03-05T01:53:40.122Z,340.07
2023-03-05T01:56:07.308Z,346.43
2023-03-05T01:58:34.349Z,350.13
2023-03-05T02:01:02.696Z,352.87
2023-03-05T02:03:29.867Z,346.13
2023-03-05T02:05:56.959Z,339.47
2023-03-05T02:08:25.035Z,341.67
2023-03-05T02:10:56.442Z,342.27
2023-03-05T02:13:35.890Z,346.37
2023-03-05T02:16:03.328Z,351.00
2023-03-05T02:18:30.830Z,336.60
2023-03-05T02:20:57.741Z,345.97
2023-03-05T02:23:29.140Z,353.53
2023-03-05T02:25:56.727Z,335.27
2023-03-05T02:28:31.320Z,356.63
2023-03-05T02:30:58.583Z,350.57
2023-03-05T02:33:25.906Z,346.17
2023-03-05T02:35:53.229Z,346.23
2023-03-05T02:38:21.763Z,354.53
2023-03-05T02:40:48.769Z,345.17
2023-03-05T02:43:15.848Z,346.40
2023-03-05T02:45:42.927Z,353.90
2023-03-05T02:48:10.005Z,342.30
2023-03-05T02:50:39.812Z,345.57
2023-03-05T02:53:07.039Z,339.07
2023-03-05T02:55:34.540Z,448.57
2023-03-05T02:58:01.577Z,340.90
2023-03-05T03:00:28.876Z,358.93
2023-03-05T03:02:56.277Z,339.43
2023-03-05T03:05:23.287Z,363.50
2023-03-05T03:07:51.177Z,345.43
2023-03-05T03:10:18.576Z,349.77
2023-03-05T03:12:48.658Z,341.70
2023-03-05T03:15:17.358Z,352.60
2023-03-05T03:17:44.615Z,362.57
2023-03-05T03:20:16.654Z,363.87
2023-03-05T03:22:45.916Z,342.63
2023-03-05T03:25:19.116Z,343.23
2023-03-05T03:27:46.192Z,339.10
2023-03-05T03:30:14.037Z,345.27
2023-03-05T03:32:41.398Z,356.20
2023-03-05T03:35:09.262Z,344.17
2023-03-05T03:37:36.474Z,352.57
2023-03-05T03:40:05.805Z,343.93
2023-03-05T03:42:33.371Z,348.83
2023-03-05T03:45:02.388Z,342.80
2023-03-05T03:47:30.932Z,348.00
2023-03-05T03:49:59.040Z,352.30
2023-03-05T03:52:26.677Z,354.03
2023-03-05T03:54:55.761Z,345.47
2023-03-05T03:57:22.958Z,362.63
2023-03-05T03:59:51.104Z,352.80
2023-03-05T04:02:18.578Z,367.67
2023-03-05T04:04:45.793Z,367.27
2023-03-05T04:07:13.117Z,362.57
2023-03-05T04:09:40.108Z,358.37
2023-03-05T04:12:07.704Z,359.70
2023-03-05T04:14:35.194Z,346.93
2023-03-05T04:17:02.293Z,362.77
2023-03-05T04:19:30.753Z,349.03
2023-03-05T04:21:59.417Z,365.13
2023-03-05T04:24:26.753Z,359.10
2023-03-05T04:26:54.096Z,347.27
2023-03-05T04:29:21.195Z,350.37
2023-03-05T04:31:48.176Z,348.73
2023-03-05T04:34:15.408Z,354.27
2023-03-05T04:36:42.388Z,355.63
2023-03-05T04:39:09.429Z,337.43
2023-03-05T04:41:36.714Z,348.87
2023-03-05T04:44:04.140Z,359.57
2023-03-05T04:46:31.210Z,346.83
2023-03-05T04:48:59.139Z,336.00
2023-03-05T04:51:26.331Z,369.23
2023-03-05T04:53:53.294Z,348.57
2023-03-05T04:56:20.981Z,342.10
2023-03-05T04:58:48.145Z,350.87
2023-03-05T05:01:15.335Z,368.63
2023-03-05T05:03:42.330Z,344.90
2023-03-05T05:06:09.354Z,352.67
2023-03-05T05:08:37.139Z,334.57
2023-03-05T05:11:07.145Z,350.87
2023-03-05T05:13:35.178Z,339.50
2023-03-05T05:16:02.496Z,336.87
2023-03-05T05:18:29.545Z,334.77
2023-03-05T05:20:56.607Z,369.63
2023-03-05T05:23:23.735Z,352.33
2023-03-05T05:26:02.282Z,362.87
2023-03-05T05:28:29.811Z,343.83
2023-03-05T05:30:57.277Z,342.03
2023-03-05T05:33:24.529Z,367.17
2023-03-05T05:35:52.189Z,340.43
2023-03-05T05:38:20.027Z,366.37
2023-03-05T05:40:46.982Z,348.57
2023-03-05T05:43:14.444Z,363.03
2023-03-05T05:45:41.553Z,359.37
2023-03-05T05:48:08.711Z,350.37
2023-03-05T05:50:35.742Z,360.23
2023-03-05T05:53:02.847Z,363.47
2023-03-05T05:55:29.816Z,358.03
2023-03-05T05:57:56.788Z,352.87
2023-03-05T06:00:24.137Z,369.10
2023-03-05T06:02:51.253Z,345.70
2023-03-05T06:05:18.280Z,359.03
2023-03-05T06:07:45.488Z,361.73
2023-03-05T06:10:12.733Z,362.17
2023-03-05T06:12:40.131Z,363.57
2023-03-05T06:15:08.108Z,359.00
2023-03-05T06:17:35.310Z,351.13
2023-03-05T06:20:02.436Z,358.73
2023-03-05T06:22:29.587Z,362.27
2023-03-05T06:24:56.551Z,358.83
2023-03-05T06:27:23.497Z,355.00
2023-03-05T06:29:54.408Z,348.83
2023-03-05T06:32:21.690Z,345.77
2023-03-05T06:34:49.508Z,344.17
2023-03-05T06:37:16.966Z,351.50
2023-03-05T06:39:44.292Z,338.83
2023-03-05T06:42:11.382Z,349.20
2023-03-05T06:44:41.986Z,354.17
2023-03-05T06:47:10.607Z,369.60
2023-03-05T06:49:39.329Z,368.67
2023-03-05T06:52:10.288Z,354.23
2023-03-05T06:54:37.371Z,346.17
2023-03-05T06:57:04.848Z,362.07
2023-03-05T06:59:31.904Z,349.13
2023-03-05T07:01:59.002Z,343.80
2023-03-05T07:04:26.290Z,348.73
2023-03-05T07:06:53.660Z,349.57
2023-03-05T07:09:20.637Z,358.07
2023-03-05T07:11:47.698Z,340.77
2023-03-05T07:14:14.880Z,341.00
2023-03-05T07:16:42.215Z,345.80
2023-03-05T07:19:11.087Z,338.90
2023-03-05T07:21:39.905Z,350.70
2023-03-05T07:24:08.744Z,338.37
2023-03-05T07:26:36.347Z,343.17
2023-03-05T07:29:03.989Z,346.60
2023-03-05T07:31:32.219Z,343.27
2023-03-05T07:34:02.067Z,341.97
2023-03-05T07:36:30.813Z,359.97
2023-03-05T07:38:58.131Z,343.17
2023-03-05T07:41:25.233Z,346.43
2023-03-05T07:43:54.730Z,341.47
2023-03-05T07:46:28.906Z,340.30
2023-03-05T07:48:56.632Z,340.93
2023-03-05T07:51:25.802Z,342.03
2023-03-05T07:53:55.324Z,346.27
2023-03-05T07:56:35.590Z,348.67
2023-03-05T07:59:07.321Z,341.53
2023-03-05T08:01:35.396Z,351.63
2023-03-05T08:04:05.001Z,339.87
2023-03-05T08:06:32.546Z,352.65
2023-03-05T08:09:00.642Z,348.80
2023-03-05T08:11:28.754Z,345.37
2023-03-05T08:13:58.118Z,343.23
2023-03-05T08:16:26.420Z,350.83
2023-03-05T08:18:58.191Z,341.07
2023-03-05T08:21:38.053Z,349.57
2023-03-05T08:24:08.060Z,346.17
2023-03-05T08:26:38.628Z,345.67
2023-03-05T08:29:09.758Z,341.37
2023-03-05T08:31:37.560Z,346.30
2023-03-05T08:34:05.769Z,360.47
2023-03-05T08:36:32.897Z,349.07
2023-03-05T08:39:00.483Z,344.97
2023-03-05T08:41:27.920Z,350.63
2023-03-05T08:43:55.145Z,344.97
2023-03-05T08:46:22.277Z,343.33
2023-03-05T08:48:49.348Z,344.60
2023-03-05T08:51:20.313Z,345.87
2023-03-05T08:53:48.041Z,351.93
2023-03-05T08:56:15.988Z,340.58
2023-03-05T08:58:43.383Z,338.90
2023-03-05T09:01:11.155Z,350.40
2023-03-05T09:03:38.620Z,341.02
2023-03-05T09:06:09.626Z,364.43
2023-03-05T09:08:36.798Z,355.33
2023-03-05T09:11:07.367Z,349.70
2023-03-05T09:13:35.129Z,350.55
2023-03-05T09:16:07.196Z,350.75
2023-03-05T09:18:36.823Z,358.23
2023-03-05T09:21:09.595Z,347.80
2023-03-05T09:23:36.688Z,356.05
2023-03-05T09:26:07.975Z,349.23
2023-03-05T09:28:35.030Z,351.73
2023-03-05T09:31:04.856Z,347.40
2023-03-05T09:33:33.131Z,355.17
2023-03-05T09:36:01.056Z,350.13
2023-03-05T09:38:29.236Z,356.60
2023-03-05T09:41:19.385Z,348.98
2023-03-05T09:44:17.184Z,352.88
2023-03-05T09:46:52.011Z,348.83
2023-03-05T09:49:37.477Z,371.75
2023-03-05T09:52:24.006Z,353.08
2023-03-05T09:54:57.372Z,355.40
2023-03-05T09:57:41.113Z,366.95
2023-03-05T10:00:50.935Z,358.65
2023-03-05T10:03:57.595Z,343.87
2023-03-05T10:06:51.085Z,349.10
2023-03-05T10:09:57.386Z,351.83
2023-03-05T10:12:42.671Z,346.08
2023-03-05T10:15:21.488Z,351.77
2023-03-05T10:18:27.110Z,348.73
2023-03-05T10:21:30.735Z,349.42
2023-03-05T10:24:10.353Z,343.67
2023-03-05T10:27:06.203Z,357.73
2023-03-05T10:29:49.506Z,355.30
2023-03-05T10:32:50.546Z,348.92
2023-03-05T10:35:42.849Z,340.25
2023-03-05T10:38:48.189Z,344.52
2023-03-05T10:41:40.242Z,352.02
2023-03-05T10:44:27.313Z,350.77
2023-03-05T10:46:58.984Z,379.08
2023-03-05T10:49:34.044Z,376.45
2023-03-05T10:52:32.776Z,363.27
2023-03-05T10:55:00.036Z,378.45
2023-03-05T10:57:32.237Z,348.58
2023-03-05T11:00:26.309Z,357.38
2023-03-05T11:03:06.759Z,346.33
2023-03-05T11:05:52.532Z,353.95
2023-03-05T11:08:36.820Z,342.88
2023-03-05T11:11:17.881Z,358.98
2023-03-05T11:14:03.870Z,358.15
2023-03-05T11:16:34.565Z,356.55
2023-03-05T11:19:25.092Z,359.25
2023-03-05T11:22:23.084Z,351.73
2023-03-05T11:25:18.345Z,351.90
2023-03-05T11:27:56.147Z,375.45
2023-03-05T11:30:29.364Z,355.58
2023-03-05T11:33:22.641Z,361.48
2023-03-05T11:35:52.542Z,358.65
2023-03-05T11:38:24.585Z,367.60
2023-03-05T11:40:54.550Z,373.75
2023-03-05T11:46:24.815Z,364.58
2023-03-05T11:48:55.073Z,351.08
2023-03-05T11:51:39.375Z,350.73
2023-03-05T11:54:14.489Z,358.42
2023-03-05T11:56:44.613Z,367.23
2023-03-05T11:59:20.950Z,363.92
2023-03-05T12:01:55.002Z,365.23
2023-03-05T12:04:23.991Z,370.65
2023-03-05T12:07:00.908Z,373.52
2023-03-05T12:09:44.208Z,387.77
2023-03-05T12:12:28.764Z,371.60
2023-03-05T12:15:35.077Z,371.15
2023-03-05T12:18:42.371Z,353.35
2023-03-05T12:21:41.271Z,356.88
2023-03-05T12:24:25.408Z,365.08
2023-03-05T12:26:53.518Z,370.92
2023-03-05T12:29:51.072Z,366.20
2023-03-05T12:32:35.157Z,362.63
2023-03-05T12:35:15.742Z,361.15
2023-03-05T12:37:45.713Z,373.17
2023-03-05T12:40:30.694Z,371.42
2023-03-05T12:43:05.778Z,371.58
2023-03-05T12:45:52.932Z,371.55
2023-03-05T12:48:19.909Z,373.95
2023-03-05T12:50:52.900Z,365.02
2023-03-05T12:53:21.369Z,378.55
2023-03-05T12:56:20.121Z,369.25
2023-03-05T12:58:55.708Z,369.85
2023-03-05T13:01:42.456Z,356.30
2023-03-05T13:04:24.097Z,354.50
2023-03-05T13:07:16.192Z,364.63
2023-03-05T13:09:57.363Z,364.08
2023-03-05T13:12:30.183Z,371.65
2023-03-05T13:15:07.275Z,371.33
2023-03-05T13:17:52.436Z,375.80
2023-03-05T13:20:40.622Z,375.58
2023-03-05T13:23:26.595Z,371.98
2023-03-05T13:26:15.724Z,371.40
2023-03-05T13:29:03.465Z,373.20
2023-03-05T13:31:31.380Z,356.70
2023-03-05T13:34:47.161Z,378.20
2023-03-05T13:37:31.801Z,371.77
2023-03-05T13:40:01.049Z,360.40
2023-03-05T13:42:34.907Z,369.05
2023-03-05T13:45:28.805Z,357.58
2023-03-05T13:48:03.215Z,345.17
2023-03-05T13:50:40.363Z,353.80
2023-03-05T13:53:30.755Z,365.08
2023-03-05T13:56:07.779Z,362.80
2023-03-05T13:58:54.919Z,358.88
2023-03-05T14:01:32.906Z,349.58
2023-03-05T14:04:22.221Z,350.33
2023-03-05T14:07:06.939Z,365.98
2023-03-05T14:09:39.999Z,364.27
2023-03-05T14:12:44.039Z,358.48
2023-03-05T14:15:27.226Z,360.30
2023-03-05T14:18:15.649Z,362.83
2023-03-05T14:21:09.036Z,361.80
2023-03-05T14:23:37.994Z,358.90
2023-03-05T14:26:19.777Z,355.83
2023-03-05T14:29:13.056Z,367.25
2023-03-05T14:32:05.280Z,358.52
2023-03-05T14:34:42.283Z,331.73
2023-03-05T14:37:29.044Z,262.20
2023-03-05T14:40:08.537Z,270.77
2023-03-05T14:42:39.399Z,238.30
2023-03-05T14:45:17.772Z,197.10
2023-03-05T14:47:45.863Z,215.55
2023-03-05T14:50:39.173Z,194.13
2023-03-05T14:53:16.350Z,206.75
2023-03-05T14:55:44.936Z,229.98
2023-03-05T14:58:21.793Z,225.88
2023-03-05T15:00:51.201Z,192.95
2023-03-05T15:03:20.444Z,203.65
2023-03-05T15:05:51.787Z,198.68
2023-03-05T15:08:31.081Z,202.18
2023-03-05T15:10:59.370Z,226.02
2023-03-05T15:13:27.234Z,207.15
2023-03-05T15:15:54.900Z,217.52
2023-03-05T15:18:23.814Z,217.43
2023-03-05T15:20:55.020Z,230.48
2023-03-05T15:23:22.053Z,237.30
2023-03-05T15:25:49.761Z,217.05
2023-03-05T15:28:17.268Z,219.70
2023-03-05T15:30:47.328Z,248.30
2023-03-05T15:33:17.079Z,188.88
2023-03-05T15:35:44.846Z,169.25
2023-03-05T15:38:12.970Z,168.30
2023-03-05T15:40:40.481Z,165.98
2023-03-05T15:43:07.737Z,158.38
2023-03-05T15:45:34.866Z,155.57
2023-03-05T15:48:02.036Z,165.70
2023-03-05T15:50:29.208Z,156.93
2023-03-05T15:52:56.520Z,156.57
2023-03-05T15:55:24.040Z,149.60
2023-03-05T15:57:53.012Z,147.25
2023-03-05T16:00:31.131Z,148.25
2023-03-05T16:02:58.418Z,148.50
2023-03-05T16:05:26.952Z,140.88
2023-03-05T16:07:55.329Z,134.88
2023-03-05T16:10:29.120Z,127.53
2023-03-05T16:13:06.533Z,130.45
2023-03-05T16:15:35.265Z,119.70
2023-03-05T16:18:07.053Z,129.23
2023-03-05T16:20:36.478Z,122.88
2023-03-05T16:23:05.908Z,129.68
2023-03-05T16:25:33.547Z,128.63
2023-03-05T16:28:00.789Z,136.35
2023-03-05T16:30:29.608Z,130.25
2023-03-05T16:32:56.801Z,124.32
2023-03-05T16:35:24.014Z,137.45
2023-03-05T16:37:51.763Z,138.55
2023-03-05T16:40:19.517Z,145.68
2023-03-05T16:42:46.931Z,146.85
2023-03-05T16:45:14.155Z,182.00
2023-03-05T16:47:41.485Z,143.05
2023-03-05T16:50:10.706Z,170.65
2023-03-05T16:52:38.120Z,272.50
2023-03-05T16:55:06.209Z,184.27
2023-03-05T16:57:33.347Z,160.80
2023-03-05T17:00:02.591Z,175.68
2023-03-05T17:02:29.757Z,174.38
2023-03-05T17:04:57.881Z,201.00
2023-03-05T17:07:26.614Z,198.45
2023-03-05T17:09:54.357Z,183.98
2023-03-05T17:12:22.422Z,164.68
2023-03-05T17:14:49.547Z,186.25
2023-03-05T17:17:16.605Z,145.00
2023-03-05T17:19:43.899Z,159.70
2023-03-05T17:22:12.740Z,183.90
2023-03-05T17:24:42.962Z,167.05
2023-03-05T17:27:10.844Z,190.65
2023-03-05T17:29:37.883Z,206.65
2023-03-05T17:32:05.720Z,160.52
2023-03-05T17:34:36.691Z,161.85
2023-03-05T17:37:05.907Z,165.32
2023-03-05T17:39:51.214Z,159.93
2023-03-05T17:42:30.837Z,138.32
2023-03-05T17:44:59.289Z,141.82
2023-03-05T17:47:26.587Z,148.85
2023-03-05T17:49:53.654Z,142.77
2023-03-05T17:52:21.223Z,136.02
2023-03-05T17:54:50.436Z,138.95
2023-03-05T17:57:17.558Z,138.40
2023-03-05T17:59:44.789Z,148.82
2023-03-05T18:02:12.817Z,189.73
2023-03-05T18:04:41.543Z,132.52
2023-03-05T18:07:08.679Z,149.60
2023-03-05T18:09:35.812Z,131.05
2023-03-05T18:12:02.931Z,164.45
2023-03-05T18:14:29.973Z,142.77
2023-03-05T18:16:59.232Z,128.82
2023-03-05T18:19:26.876Z,126.68
2023-03-05T18:21:54.069Z,132.27
2023-03-05T18:24:21.225Z,142.80
2023-03-05T18:26:48.881Z,138.77
2023-03-05T18:29:18.538Z,123.88
2023-03-05T18:31:46.462Z,127.18
2023-03-05T18:34:13.638Z,165.80
2023-03-05T18:36:40.674Z,124.35
2023-03-05T18:39:07.793Z,122.07
2023-03-05T18:41:34.760Z,140.18
2023-03-05T18:44:01.901Z,133.35
2023-03-05T18:46:28.955Z,162.60
2023-03-05T18:48:55.997Z,115.00
2023-03-05T18:51:24.605Z,165.20
2023-03-05T18:53:54.958Z,128.15
2023-03-05T18:56:22.321Z,116.30
2023-03-05T18:58:49.996Z,136.63
2023-03-05T19:01:19.052Z,115.47
2023-03-05T19:03:48.995Z,115.40
2023-03-05T19:06:17.868Z,127.72
2023-03-05T19:08:45.806Z,124.10
2023-03-05T19:11:21.087Z,128.90
2023-03-05T19:13:50.489Z,110.38
2023-03-05T19:16:21.829Z,114.97
2023-03-05T19:19:24.616Z,116.80
2023-03-05T19:21:59.867Z,108.10
2023-03-05T19:24:30.104Z,100.75
2023-03-05T19:27:01.173Z,85.18
2023-03-05T19:29:33.151Z,115.82
2023-03-05T19:32:00.192Z,101.32
2023-03-05T19:34:27.638Z,84.00
2023-03-05T19:36:55.130Z,87.82
2023-03-05T19:39:22.332Z,100.00
2023-03-05T19:41:49.600Z,93.75
2023-03-05T19:44:16.785Z,92.60
2023-03-05T19:46:43.829Z,81.85
2023-03-05T19:49:11.059Z,86.18
2023-03-05T19:51:40.458Z,69.53
2023-03-05T19:54:07.750Z,76.70
2023-03-05T19:56:39.802Z,68.95
2023-03-05T19:59:07.713Z,71.53
2023-03-05T20:01:35.918Z,72.32
2023-03-05T20:04:05.495Z,73.35
2023-03-05T20:06:34.311Z,58.63
2023-03-05T20:09:01.320Z,53.10
2023-03-05T20:11:28.806Z,64.18
2023-03-05T20:13:56.744Z,51.85
2023-03-05T20:16:31.401Z,51.25
2023-03-05T20:18:59.727Z,56.28
2023-03-05T20:21:34.791Z,84.50
2023-03-05T20:24:09.940Z,48.88
2023-03-05T20:26:39.729Z,40.78
2023-03-05T20:29:08.026Z,41.33
2023-03-05T20:31:37.396Z,43.13
2023-03-05T20:34:11.484Z,38.25
2023-03-05T20:36:39.265Z,47.85
2023-03-05T20:39:07.138Z,49.88
2023-03-05T20:41:36.929Z,52.90
2023-03-05T20:44:04.774Z,49.17
2023-03-05T20:49:12.069Z,49.13
2023-03-05T20:51:39.380Z,56.13
2023-03-05T20:54:13.208Z,49.45
2023-03-05T20:56:40.165Z,44.40
2023-03-05T20:59:08.977Z,45.63
2023-03-05T21:01:39.402Z,69.50
2023-03-05T21:04:06.982Z,43.67
2023-03-05T21:06:36.839Z,54.63
2023-03-05T21:09:04.315Z,40.70
2023-03-05T21:11:32.217Z,63.33
2023-03-05T21:13:59.536Z,36.15
2023-03-05T21:16:28.062Z,47.63
2023-03-05T21:18:57.371Z,42.55
2023-03-05T21:21:25.188Z,53.20
2023-03-05T21:23:53.469Z,38.13
2023-03-05T21:26:21.251Z,44.35
2023-03-05T21:28:48.556Z,49.47
2023-03-05T21:31:19.844Z,50.30
2023-03-05T21:33:47.068Z,42.97
2023-03-05T21:36:18.637Z,35.83
2023-03-05T21:38:47.677Z,43.00
2023-03-05T21:41:15.492Z,33.78
2023-03-05T21:43:42.852Z,39.00
2023-03-05T21:46:11.148Z,37.20
2023-03-05T21:48:38.416Z,48.42
2023-03-05T21:52:15.262Z,65.38
2023-03-05T21:54:43.026Z,47.83
2023-03-05T21:57:11.857Z,30.63
2023-03-05T21:59:42.749Z,46.72
2023-03-05T22:02:18.791Z,40.63
2023-03-05T22:04:46.917Z,49.80
2023-03-05T22:07:16.104Z,41.55
2023-03-05T22:09:43.259Z,28.33
2023-03-05T22:12:57.181Z,38.25
2023-03-05T22:15:24.610Z,28.65
2023-03-05T22:17:51.622Z,39.78
2023-03-05T22:20:18.986Z,29.27
2023-03-05T22:22:49.212Z,36.03
2023-03-05T22:25:17.145Z,28.20
2023-03-05T22:27:45.314Z,38.13
2023-03-05T22:30:14.058Z,33.00
2023-03-05T22:32:41.115Z,26.13
2023-03-05T22:35:13.415Z,52.80
2023-03-05T22:37:41.708Z,43.42
2023-03-05T22:40:14.105Z,32.80
2023-03-05T22:42:41.751Z,38.42
2023-03-05T22:45:09.754Z,37.35
2023-03-05T22:47:36.902Z,26.50
2023-03-05T22:50:05.466Z,28.25
2023-03-05T22:52:32.718Z,39.75
2023-03-05T22:55:03.086Z,31.85
2023-03-05T22:57:30.431Z,28.85
2023-03-05T22:59:57.595Z,30.83
2023-03-05T23:02:24.770Z,24.42
2023-03-05T23:05:00.427Z,33.58
2023-03-05T23:07:31.969Z,18.77
2023-03-05T23:10:09.091Z,20.95
2023-03-05T23:12:39.135Z,35.33
2023-03-05T23:15:10.905Z,29.50
2023-03-05T23:17:38.222Z,30.77
2023-03-05T23:20:10.306Z,24.35
2023-03-05T23:22:39.680Z,38.95
2023-03-05T23:25:07.551Z,24.85
2023-03-05T23:27:34.626Z,29.38
2023-03-05T23:30:17.756Z,23.80
2023-03-05T23:33:16.633Z,32.55
2023-03-05T23:35:51.119Z,29.40
2023-03-05T23:38:18.492Z,23.80
2023-03-05T23:40:51.571Z,39.60
2023-03-05T23:43:19.580Z,21.33
2023-03-05T23:45:49.437Z,28.88
2023-03-05T23:48:17.653Z,24.30
2023-03-05T23:50:47.785Z,27.58
2023-03-05T23:53:22.082Z,19.33
2023-03-05T23:55:49.826Z,32.08
2023-03-05T23:58:19.117Z,19.58
